Andrews AFB, Maryland
Current Conditions -  °F | °C
As of 10:58 AM on Tuesday 21 Oct 2014 (Local Time) from KADW Reporting Station
Clear Clear  
Wind Chill: 64°   Ceiling: Unl
Heat Index: 64°   Visibility: 10mi
Dew Point: 50°   Wind: 3mph
Humidity: 60%   Direction: 320°NW
Pressure: 29.87"   Gusts: NA
Location:  38.8°N, 76.87°W
Report Text: KADW 211458Z AUTO 32003KT 10SM CLR 18/10 A2987 RMK AO2 SLP121 T01780099 50003 $
Loading
Personal Weather Stations






























Interactive Weather Map
Tropical Storm Tracking
New forecast layout! Learn more

10-Day Weather Forecast

Advertisements
Track Severe Weather on mobile